createdAt,value
2022-12-23T00:01:25.543Z,85.80
2022-12-23T00:03:57.538Z,85.80
2022-12-23T00:06:27.665Z,85.90
2022-12-23T00:08:58.435Z,85.80
2022-12-23T00:11:28.336Z,85.80
2022-12-23T00:14:20.442Z,85.80
2022-12-23T00:16:50.148Z,85.90
2022-12-23T00:19:18.575Z,85.60
2022-12-23T00:21:48.940Z,85.60
2022-12-23T00:24:17.169Z,85.70
2022-12-23T00:26:45.338Z,85.60
2022-12-23T00:29:13.508Z,85.70
2022-12-23T00:31:41.707Z,85.70
2022-12-23T00:34:12.041Z,85.70
2022-12-23T00:36:40.772Z,85.70
2022-12-23T00:39:31.329Z,85.70
2022-12-23T00:42:17.367Z,85.60
2022-12-23T00:44:45.863Z,85.60
2022-12-23T00:47:35.061Z,85.50
2022-12-23T00:50:02.255Z,85.50
2022-12-23T00:52:30.496Z,85.60
2022-12-23T00:55:00.134Z,85.50
2022-12-23T00:57:28.366Z,85.50
2022-12-23T00:59:56.543Z,85.60
2022-12-23T01:02:42.580Z,85.60
2022-12-23T01:05:29.387Z,85.60
2022-12-23T01:07:57.596Z,85.50
2022-12-23T01:10:27.496Z,85.30
2022-12-23T01:12:55.724Z,85.30
2022-12-23T01:15:24.321Z,85.30
2022-12-23T01:17:52.455Z,85.20
2022-12-23T01:20:20.674Z,85.30
2022-12-23T01:22:49.119Z,85.30
2022-12-23T01:25:17.437Z,85.20
2022-12-23T01:27:46.933Z,85.30
2022-12-23T01:30:15.525Z,85.30
2022-12-23T01:32:43.654Z,85.30
2022-12-23T01:35:12.062Z,85.20
2022-12-23T01:37:40.506Z,85.20
2022-12-23T01:40:10.050Z,85.00
2022-12-23T01:42:46.715Z,85.00
2022-12-23T01:45:20.746Z,85.00
2022-12-23T01:47:54.995Z,84.90
2022-12-23T01:50:26.610Z,84.90
2022-12-23T01:53:07.372Z,84.80
2022-12-23T01:55:42.043Z,84.70
2022-12-23T01:58:13.410Z,84.70
2022-12-23T02:01:00.983Z,84.80
2022-12-23T02:03:44.583Z,84.50
2022-12-23T02:06:38.580Z,84.60
2022-12-23T02:09:18.666Z,84.70
2022-12-23T02:12:16.807Z,84.60
2022-12-23T02:15:18.124Z,84.90
2022-12-23T02:17:56.963Z,85.00
2022-12-23T02:20:55.298Z,85.10
2022-12-23T02:23:58.770Z,85.30
2022-12-23T02:26:57.609Z,85.50
2022-12-23T02:30:07.744Z,85.50
2022-12-23T02:32:52.165Z,85.60
2022-12-23T02:35:28.723Z,85.70
2022-12-23T02:38:02.633Z,85.80
2022-12-23T02:40:39.470Z,85.80
2022-12-23T02:43:14.918Z,85.90
2022-12-23T02:45:48.708Z,86.10
2022-12-23T02:48:24.634Z,86.20
2022-12-23T02:50:55.350Z,86.20
2022-12-23T02:53:28.620Z,86.20
2022-12-23T02:55:58.115Z,86.20
2022-12-23T02:58:30.912Z,86.20
2022-12-23T03:01:02.038Z,86.40
2022-12-23T03:03:33.418Z,86.40
2022-12-23T03:06:02.912Z,86.50
2022-12-23T03:08:35.546Z,86.90
2022-12-23T03:11:06.763Z,86.40
2022-12-23T03:13:54.938Z,86.50
2022-12-23T03:16:27.914Z,86.20
2022-12-23T03:19:08.247Z,86.00
2022-12-23T03:21:40.724Z,86.00
2022-12-23T03:24:20.221Z,85.90
2022-12-23T03:26:53.186Z,85.70
2022-12-23T03:29:27.879Z,85.50
2022-12-23T03:32:00.889Z,85.50
2022-12-23T03:34:33.011Z,85.30
2022-12-23T03:37:06.039Z,85.10
2022-12-23T03:39:39.766Z,84.80
2022-12-23T03:42:14.223Z,84.70
2022-12-23T03:45:10.793Z,84.60
2022-12-23T03:47:40.115Z,84.50
2022-12-23T03:50:14.003Z,84.30
2022-12-23T03:52:45.900Z,84.10
2022-12-23T03:55:19.627Z,83.90
2022-12-23T03:57:54.747Z,83.80
2022-12-23T04:00:22.959Z,83.60
2022-12-23T04:03:00.750Z,84.10
2022-12-23T04:05:35.006Z,83.00
2022-12-23T04:08:11.233Z,82.80
2022-12-23T04:10:39.525Z,82.70
2022-12-23T04:13:08.177Z,82.50
2022-12-23T04:15:41.250Z,82.30
2022-12-23T04:18:11.153Z,82.10
2022-12-23T04:20:40.851Z,81.90
2022-12-23T04:23:08.985Z,81.80
2022-12-23T04:25:37.267Z,81.70
2022-12-23T04:28:05.956Z,81.60
2022-12-23T04:30:34.964Z,81.40
2022-12-23T04:33:03.601Z,81.40
2022-12-23T04:35:32.130Z,81.40
2022-12-23T04:38:01.601Z,81.40
2022-12-23T04:40:29.883Z,81.40
2022-12-23T04:42:58.103Z,81.40
2022-12-23T04:45:26.294Z,81.30
2022-12-23T04:47:55.413Z,81.60
2022-12-23T04:50:23.619Z,81.70
2022-12-23T04:52:51.829Z,81.80
2022-12-23T04:55:21.412Z,82.00
2022-12-23T04:57:49.536Z,82.20
2022-12-23T05:00:18.740Z,82.20
2022-12-23T05:02:47.082Z,82.30
2022-12-23T05:05:15.453Z,82.40
2022-12-23T05:07:43.709Z,82.50
2022-12-23T05:10:12.339Z,82.60
2022-12-23T05:12:41.919Z,82.50
2022-12-23T05:15:11.921Z,82.40
2022-12-23T05:17:40.123Z,82.50
2022-12-23T05:20:10.654Z,83.20
2022-12-23T05:22:38.837Z,82.50
2022-12-23T05:25:08.221Z,82.40
2022-12-23T05:27:37.416Z,82.40
2022-12-23T05:30:08.652Z,82.20
2022-12-23T05:32:37.183Z,82.20
2022-12-23T05:35:05.927Z,82.10
2022-12-23T05:37:34.188Z,82.10
2022-12-23T05:40:02.456Z,82.10
2022-12-23T05:42:30.987Z,82.10
2022-12-23T05:44:59.136Z,82.10
2022-12-23T05:47:28.733Z,82.10
2022-12-23T05:49:56.996Z,82.00
2022-12-23T05:52:25.216Z,82.10
2022-12-23T05:54:53.446Z,82.00
2022-12-23T05:57:21.659Z,82.00
2022-12-23T05:59:49.984Z,82.00
2022-12-23T06:02:18.473Z,82.10
2022-12-23T06:04:48.116Z,82.00
2022-12-23T06:07:16.269Z,81.90
2022-12-23T06:09:44.431Z,82.20
2022-12-23T06:12:12.820Z,81.70
2022-12-23T06:14:40.993Z,81.70
2022-12-23T06:17:09.270Z,81.60
2022-12-23T06:19:37.594Z,81.50
2022-12-23T06:22:07.263Z,81.30
2022-12-23T06:24:35.424Z,81.20
2022-12-23T06:27:03.666Z,81.20
2022-12-23T06:29:31.919Z,81.10
2022-12-23T06:32:00.297Z,81.10
2022-12-23T06:34:28.605Z,81.10
2022-12-23T06:36:56.747Z,81.00
2022-12-23T06:39:26.347Z,81.00
2022-12-23T06:41:54.567Z,81.30
2022-12-23T06:44:22.696Z,81.50
2022-12-23T06:46:51.003Z,81.70
2022-12-23T06:49:19.173Z,82.10
2022-12-23T06:51:47.355Z,82.30
2022-12-23T06:54:15.574Z,82.60
2022-12-23T06:56:45.117Z,82.70
2022-12-23T06:59:13.370Z,82.80
2022-12-23T07:01:41.701Z,82.90
2022-12-23T07:04:10.322Z,83.10
2022-12-23T07:06:39.460Z,83.20
2022-12-23T07:09:07.706Z,83.50
2022-12-23T07:11:35.847Z,83.50
2022-12-23T07:14:05.456Z,83.60
2022-12-23T07:16:33.779Z,83.70
2022-12-23T07:19:02.368Z,83.80
2022-12-23T07:21:30.573Z,84.00
2022-12-23T07:23:58.705Z,84.30
2022-12-23T07:26:26.912Z,84.50
2022-12-23T07:28:55.218Z,84.70
2022-12-23T07:31:24.896Z,84.80
2022-12-23T07:33:53.230Z,84.90
2022-12-23T07:36:21.439Z,85.10
2022-12-23T07:38:51.547Z,85.40
2022-12-23T07:41:20.020Z,85.30
2022-12-23T07:43:48.463Z,85.40
2022-12-23T07:46:16.888Z,85.50
2022-12-23T07:48:46.459Z,85.50
2022-12-23T07:51:14.699Z,85.60
2022-12-23T07:53:42.956Z,86.40
2022-12-23T07:56:11.186Z,85.80
2022-12-23T07:58:39.361Z,85.80
2022-12-23T08:01:08.927Z,85.60
2022-12-23T08:03:38.367Z,85.70
2022-12-23T08:06:12.280Z,85.70
2022-12-23T08:08:41.301Z,85.70
2022-12-23T08:11:10.763Z,85.70
2022-12-23T08:13:41.558Z,85.80
2022-12-23T08:16:10.677Z,85.80
2022-12-23T08:18:41.203Z,85.90
2022-12-23T08:21:15.673Z,85.70
2022-12-23T08:23:44.541Z,85.70
2022-12-23T08:26:14.852Z,85.70
2022-12-23T08:28:44.610Z,85.50
2022-12-23T08:31:15.862Z,85.50
2022-12-23T08:33:46.673Z,85.50
2022-12-23T08:36:22.706Z,85.40
2022-12-23T08:38:53.436Z,85.40
2022-12-23T08:41:24.090Z,85.60
2022-12-23T08:43:52.689Z,85.50
2022-12-23T08:46:21.612Z,85.40
2022-12-23T08:48:50.194Z,85.50
2022-12-23T08:51:21.910Z,85.50
2022-12-23T08:53:54.867Z,85.60
2022-12-23T08:56:29.268Z,85.40
2022-12-23T08:58:58.147Z,85.60
2022-12-23T09:01:28.733Z,85.60
2022-12-23T09:03:57.187Z,85.60
2022-12-23T09:06:30.429Z,85.60
2022-12-23T09:08:59.581Z,85.70
2022-12-23T09:11:29.179Z,85.70
2022-12-23T09:13:59.738Z,85.60
2022-12-23T09:16:30.178Z,85.50
2022-12-23T09:18:58.818Z,85.50
2022-12-23T09:21:28.506Z,85.50
2022-12-23T09:23:56.699Z,85.70
2022-12-23T09:26:26.967Z,86.00
2022-12-23T09:28:55.525Z,86.10
2022-12-23T09:31:25.968Z,86.20
2022-12-23T09:33:57.662Z,86.30
2022-12-23T09:36:25.899Z,86.20
2022-12-23T09:38:59.571Z,86.20
2022-12-23T09:41:39.892Z,86.20
2022-12-23T09:44:22.390Z,86.30
2022-12-23T09:46:54.523Z,86.30
2022-12-23T09:49:24.858Z,86.30
2022-12-23T09:51:55.988Z,86.30
2022-12-23T09:54:28.882Z,86.30
2022-12-23T09:57:01.383Z,86.30
2022-12-23T09:59:43.440Z,86.30
2022-12-23T10:02:23.639Z,86.30
2022-12-23T10:05:02.843Z,86.20
2022-12-23T10:07:36.830Z,86.30
2022-12-23T10:10:17.268Z,86.30
2022-12-23T10:12:48.143Z,86.30
2022-12-23T10:15:29.421Z,86.20
2022-12-23T10:18:01.307Z,86.20
2022-12-23T10:20:37.359Z,86.10
2022-12-23T10:23:11.697Z,86.10
2022-12-23T10:25:49.808Z,85.90
2022-12-23T10:28:18.221Z,85.90
2022-12-23T10:31:17.180Z,85.80
2022-12-23T10:33:54.964Z,85.70
2022-12-23T10:36:31.913Z,85.50
2022-12-23T10:39:06.701Z,85.40
2022-12-23T10:41:43.442Z,85.40
2022-12-23T10:44:48.983Z,85.30
2022-12-23T10:47:28.368Z,85.30
2022-12-23T10:50:11.097Z,85.20
2022-12-23T10:52:43.474Z,85.10
2022-12-23T10:55:31.351Z,85.00
2022-12-23T10:58:10.262Z,84.80
2022-12-23T11:00:41.547Z,84.80
2022-12-23T11:03:18.765Z,84.70
2022-12-23T11:05:49.752Z,84.50
2022-12-23T11:08:19.278Z,84.30
2022-12-23T11:10:47.681Z,84.10
2022-12-23T11:13:33.404Z,84.70
2022-12-23T11:16:14.351Z,83.80
2022-12-23T11:18:57.746Z,83.60
2022-12-23T11:21:26.239Z,83.50
2022-12-23T11:24:14.768Z,83.50
2022-12-23T11:26:44.154Z,83.30
2022-12-23T11:29:21.464Z,83.30
2022-12-23T11:31:50.411Z,83.10
2022-12-23T11:34:21.024Z,83.00
2022-12-23T11:36:56.527Z,82.90
2022-12-23T11:39:30.729Z,82.80
2022-12-23T11:42:06.912Z,82.80
2022-12-23T11:44:41.140Z,82.80
2022-12-23T11:47:24.927Z,82.80
2022-12-23T11:49:55.343Z,82.80
2022-12-23T11:52:24.522Z,82.90
2022-12-23T11:54:55.541Z,82.90
2022-12-23T11:57:28.697Z,83.00
2022-12-23T12:00:01.578Z,83.00
2022-12-23T12:02:35.740Z,83.20
2022-12-23T12:05:09.554Z,83.50
2022-12-23T12:07:37.966Z,83.60
2022-12-23T12:10:11.657Z,83.80
2022-12-23T12:12:41.560Z,83.80
2022-12-23T12:15:26.159Z,84.00
2022-12-23T12:17:57.540Z,84.10
2022-12-23T12:20:30.368Z,84.00
2022-12-23T12:23:02.969Z,84.10
2022-12-23T12:25:40.280Z,84.20
2022-12-23T12:28:14.696Z,84.40
2022-12-23T12:30:51.303Z,84.50
2022-12-23T12:33:24.421Z,84.70
2022-12-23T12:36:00.224Z,84.80
2022-12-23T12:38:32.924Z,85.00
2022-12-23T12:41:08.182Z,85.10
2022-12-23T12:43:41.158Z,85.30
2022-12-23T12:46:25.318Z,85.40
2022-12-23T12:49:00.715Z,85.50
2022-12-23T12:51:34.711Z,85.40
2022-12-23T12:54:10.979Z,85.50
2022-12-23T12:56:44.657Z,85.60
2022-12-23T12:59:18.309Z,85.80
2022-12-23T13:02:16.500Z,85.80
2022-12-23T13:05:17.184Z,85.80
2022-12-23T13:08:00.779Z,85.70
2022-12-23T13:10:40.303Z,85.80
2022-12-23T13:13:24.358Z,86.00
2022-12-23T13:15:59.524Z,86.00
2022-12-23T13:18:40.055Z,86.20
2022-12-23T13:21:14.624Z,86.30
2022-12-23T13:23:49.973Z,86.40
2022-12-23T13:26:28.787Z,86.40
2022-12-23T13:29:09.217Z,86.40
2022-12-23T13:31:45.391Z,86.60
2022-12-23T13:34:27.195Z,86.60
2022-12-23T13:37:05.585Z,86.60
2022-12-23T13:39:44.765Z,86.70
2022-12-23T13:42:19.666Z,86.80
2022-12-23T13:44:47.960Z,87.00
2022-12-23T13:47:25.301Z,87.10
2022-12-23T13:50:00.588Z,87.20
2022-12-23T13:52:43.702Z,87.20
2022-12-23T13:55:21.778Z,87.40
2022-12-23T13:57:57.701Z,87.30
2022-12-23T14:00:30.391Z,87.30
2022-12-23T14:03:19.073Z,87.40
2022-12-23T14:05:50.735Z,87.50
2022-12-23T14:08:30.239Z,87.50
2022-12-23T14:11:03.333Z,87.70
2022-12-23T14:13:39.123Z,87.90
2022-12-23T14:16:33.322Z,88.10
2022-12-23T14:19:52.358Z,88.30
2022-12-23T14:22:44.132Z,88.30
2022-12-23T14:25:34.175Z,88.30
2022-12-23T14:28:11.505Z,88.40
2022-12-23T14:30:45.014Z,88.50
2022-12-23T14:33:22.328Z,88.60
2022-12-23T14:35:56.537Z,88.80
2022-12-23T14:38:28.671Z,89.10
2022-12-23T14:41:26.266Z,89.20
2022-12-23T14:43:59.545Z,89.30
2022-12-23T14:46:58.746Z,89.40
2022-12-23T14:49:48.098Z,89.60
2022-12-23T14:52:59.026Z,89.70
2022-12-23T14:55:46.357Z,89.60
2022-12-23T14:59:01.560Z,89.50
2022-12-23T15:01:35.080Z,89.70
2022-12-23T15:04:12.024Z,89.60
2022-12-23T15:06:42.424Z,89.70
2022-12-23T15:09:21.572Z,89.70
2022-12-23T15:11:51.529Z,89.70
2022-12-23T15:14:29.170Z,89.80
2022-12-23T15:16:57.530Z,89.70
2022-12-23T15:19:27.894Z,89.90
2022-12-23T15:22:19.589Z,89.90
2022-12-23T15:24:49.251Z,89.90
2022-12-23T15:27:29.714Z,89.90
2022-12-23T15:29:59.331Z,89.80
2022-12-23T15:32:29.435Z,89.90
2022-12-23T15:35:04.957Z,89.80
2022-12-23T15:37:34.268Z,89.90
2022-12-23T15:40:12.182Z,89.80
2022-12-23T15:42:48.693Z,89.80
2022-12-23T15:45:32.992Z,89.80
2022-12-23T15:48:02.815Z,89.70
2022-12-23T15:50:40.110Z,89.60
2022-12-23T15:53:09.454Z,89.40
2022-12-23T15:55:40.940Z,89.40
2022-12-23T15:58:19.777Z,89.80
2022-12-23T16:00:54.275Z,90.00
2022-12-23T16:03:28.063Z,90.30
2022-12-23T16:06:06.404Z,90.50
2022-12-23T16:08:34.947Z,90.60
2022-12-23T16:11:07.548Z,90.50
2022-12-23T16:13:41.467Z,90.50
2022-12-23T16:16:32.055Z,90.50
2022-12-23T16:19:00.723Z,90.50
2022-12-23T16:21:31.880Z,90.40
2022-12-23T16:24:01.387Z,90.40
2022-12-23T16:26:29.728Z,90.30
2022-12-23T16:29:02.166Z,90.20
2022-12-23T16:31:30.524Z,90.10
2022-12-23T16:34:00.962Z,90.00
2022-12-23T16:36:36.589Z,89.70
2022-12-23T16:39:14.951Z,89.10
2022-12-23T16:41:43.201Z,88.70
2022-12-23T16:44:12.875Z,88.30
2022-12-23T16:46:45.037Z,87.70
2022-12-23T16:49:16.569Z,87.10
2022-12-23T16:51:44.814Z,86.60
2022-12-23T16:54:15.549Z,86.20
2022-12-23T16:56:44.262Z,85.80
2022-12-23T16:59:14.244Z,85.30
2022-12-23T17:01:45.769Z,84.50
2022-12-23T17:04:14.383Z,83.60
2022-12-23T17:06:42.819Z,82.90
2022-12-23T17:09:12.190Z,82.20
2022-12-23T17:11:42.807Z,81.40
2022-12-23T17:14:16.968Z,80.70
2022-12-23T17:16:45.517Z,80.00
2022-12-23T17:19:13.821Z,79.70
2022-12-23T17:21:45.133Z,78.70
2022-12-23T17:24:18.172Z,78.10
2022-12-23T17:26:46.455Z,77.60
2022-12-23T17:29:16.123Z,77.10
2022-12-23T17:31:45.638Z,77.30
2022-12-23T17:34:16.705Z,76.30
2022-12-23T17:36:49.784Z,76.00
2022-12-23T17:39:18.760Z,75.80
2022-12-23T17:41:47.553Z,75.50
2022-12-23T17:44:18.528Z,75.20
2022-12-23T17:46:47.829Z,74.90
2022-12-23T17:49:16.076Z,74.80
2022-12-23T17:51:44.381Z,74.70
2022-12-23T17:54:22.892Z,74.50
2022-12-23T17:56:51.268Z,74.40
2022-12-23T17:59:20.841Z,74.50
2022-12-23T18:01:49.216Z,74.60
2022-12-23T18:04:17.478Z,74.80
2022-12-23T18:06:45.719Z,75.00
2022-12-23T18:09:13.898Z,74.80
2022-12-23T18:11:45.378Z,74.80
2022-12-23T18:14:17.699Z,74.60
2022-12-23T18:16:47.650Z,74.50
2022-12-23T18:19:19.340Z,74.40
2022-12-23T18:21:48.150Z,74.30
2022-12-23T18:24:16.504Z,74.20
2022-12-23T18:26:44.737Z,74.00
2022-12-23T18:29:12.957Z,73.80
2022-12-23T18:31:50.499Z,73.50
2022-12-23T18:34:21.413Z,73.30
2022-12-23T18:36:51.565Z,73.10
2022-12-23T18:39:20.922Z,72.90
2022-12-23T18:41:49.406Z,72.70
2022-12-23T18:44:20.369Z,72.40
2022-12-23T18:46:49.169Z,72.20
2022-12-23T18:49:17.539Z,72.00
2022-12-23T18:51:47.335Z,71.80
2022-12-23T18:54:16.227Z,71.60
2022-12-23T18:56:44.872Z,71.50
2022-12-23T18:59:18.560Z,71.50
2022-12-23T19:01:48.659Z,71.40
2022-12-23T19:04:17.403Z,71.30
2022-12-23T19:06:47.241Z,71.30
2022-12-23T19:09:19.037Z,71.10
2022-12-23T19:11:48.811Z,71.00
2022-12-23T19:14:17.180Z,70.90
2022-12-23T19:16:51.198Z,71.00
2022-12-23T19:19:20.412Z,70.90
2022-12-23T19:21:50.014Z,70.70
2022-12-23T19:24:18.283Z,70.50
2022-12-23T19:26:46.511Z,70.50
2022-12-23T19:29:15.176Z,70.40
2022-12-23T19:31:43.841Z,70.30
2022-12-23T19:34:15.313Z,70.30
2022-12-23T19:36:44.377Z,70.40
2022-12-23T19:39:16.622Z,70.30
2022-12-23T19:41:45.625Z,70.40
2022-12-23T19:44:14.278Z,70.40
2022-12-23T19:46:42.777Z,70.50
2022-12-23T19:49:17.418Z,70.50
2022-12-23T19:51:48.131Z,70.50
2022-12-23T19:54:18.469Z,70.50
2022-12-23T19:56:47.166Z,70.40
2022-12-23T19:59:15.407Z,70.40
2022-12-23T20:01:44.234Z,70.50
2022-12-23T20:04:13.641Z,70.50
2022-12-23T20:06:43.041Z,70.50
2022-12-23T20:09:13.459Z,70.60
2022-12-23T20:11:44.580Z,70.70
2022-12-23T20:14:14.549Z,70.80
2022-12-23T20:16:44.608Z,70.90
2022-12-23T20:19:12.810Z,71.00
2022-12-23T20:21:42.023Z,70.90
2022-12-23T20:24:10.912Z,70.90
2022-12-23T20:26:39.862Z,71.00
2022-12-23T20:29:09.700Z,71.00
2022-12-23T20:31:39.554Z,70.90
2022-12-23T20:34:09.210Z,70.60
2022-12-23T20:36:38.020Z,70.60
2022-12-23T20:39:07.107Z,70.40
2022-12-23T20:41:35.824Z,70.00
2022-12-23T20:46:53.846Z,69.50
2022-12-23T20:49:22.307Z,69.90
2022-12-23T20:51:50.500Z,68.70
2022-12-23T20:54:18.708Z,68.30
2022-12-23T20:56:46.883Z,67.90
2022-12-23T20:59:15.110Z,67.60
2022-12-23T21:01:43.412Z,67.30
2022-12-23T21:04:16.016Z,67.20
2022-12-23T21:06:45.908Z,67.00
2022-12-23T21:09:15.853Z,66.80
2022-12-23T21:11:46.278Z,66.90
2022-12-23T21:14:15.561Z,66.80
2022-12-23T21:16:44.640Z,66.90
2022-12-23T21:19:17.959Z,67.00
2022-12-23T21:21:46.935Z,66.90
2022-12-23T21:24:15.364Z,67.00
2022-12-23T21:26:43.880Z,67.10
2022-12-23T21:29:12.951Z,67.10
2022-12-23T21:31:42.038Z,67.20
2022-12-23T21:34:14.218Z,67.20
2022-12-23T21:36:43.991Z,67.30
2022-12-23T21:39:15.789Z,67.90
2022-12-23T21:41:44.245Z,67.50
2022-12-23T21:44:14.655Z,67.70
2022-12-23T21:46:42.965Z,67.70
2022-12-23T21:49:11.795Z,67.90
2022-12-23T21:51:41.728Z,68.00
2022-12-23T21:54:12.884Z,68.10
2022-12-23T21:56:43.161Z,68.20
2022-12-23T21:59:13.817Z,68.20
2022-12-23T22:01:42.390Z,68.40
2022-12-23T22:04:10.897Z,68.40
2022-12-23T22:06:41.186Z,68.30
2022-12-23T22:09:13.479Z,68.30
2022-12-23T22:11:41.672Z,68.40
2022-12-23T22:14:13.267Z,68.30
2022-12-23T22:16:41.669Z,68.20
2022-12-23T22:19:10.208Z,68.20
2022-12-23T22:21:39.613Z,68.10
2022-12-23T22:24:08.594Z,68.10
2022-12-23T22:26:38.168Z,68.50
2022-12-23T22:29:07.416Z,67.80
2022-12-23T22:32:09.293Z,67.80
2022-12-23T22:35:38.564Z,67.80
2022-12-23T22:38:27.128Z,67.60
2022-12-23T22:41:11.436Z,67.80
2022-12-23T22:43:43.819Z,67.70
2022-12-23T22:46:12.255Z,67.70
2022-12-23T22:48:40.616Z,67.60
2022-12-23T22:51:11.900Z,67.50
2022-12-23T22:53:40.165Z,67.40
2022-12-23T22:56:09.505Z,67.40
2022-12-23T22:58:37.889Z,67.50
2022-12-23T23:01:14.067Z,67.50
2022-12-23T23:03:42.206Z,67.50
2022-12-23T23:06:12.441Z,67.50
2022-12-23T23:08:43.501Z,67.50
2022-12-23T23:11:12.121Z,67.40
2022-12-23T23:13:40.353Z,67.40
2022-12-23T23:16:09.966Z,67.40
2022-12-23T23:18:39.287Z,67.30
2022-12-23T23:21:07.849Z,67.20
2022-12-23T23:23:36.460Z,67.20
2022-12-23T23:26:05.040Z,67.10
2022-12-23T23:28:33.244Z,67.20
2022-12-23T23:31:31.850Z,66.80
2022-12-23T23:33:51.075Z,66.70
2022-12-23T23:36:19.320Z,66.60
2022-12-23T23:38:47.700Z,66.60
2022-12-23T23:41:20.640Z,66.50
2022-12-23T23:43:51.328Z,66.30
2022-12-23T23:46:19.988Z,66.20
2022-12-23T23:48:49.787Z,66.10
2022-12-23T23:51:17.944Z,66.00
2022-12-23T23:53:46.168Z,65.90
2022-12-23T23:56:14.537Z,65.80
2022-12-23T23:58:42.697Z,65.60
